Latest Coastal Weather Observations for Gladstone

IDQ60701

Issued at 4:21 pm EST Wednesday 5 August 2015 (issued every 10 minutes, with the page automatically refreshed every 10 minutes)

About coastal observations | Map of coastal stations | Coastal observations for QLD | Marine services | Other Formats
Station Details ID: 039123 Name: GLADSTONE RADAR Lat: -23.86 Lon: 151.26 Height: 74.5 m
Data from the previous 72 hours. | See also: Recent months at Gladstone
Date/Time
EST
Temp

°C
Wind Pressure Rain
since 9am
mm
Weather Cloud Vis
km
Sea
Height
m
Swell
Dir
 
Speed
knots
Gust
knots
hPa Trend Height
m
Period
s
Dir
05/04:00pm 21.6 WSW 5 10 1014.3 - 0.0 - - - - - - -
05/03:30pm 22.7 W 5 9 1014.3 - 0.0 - - - - - - -
05/03:00pm 22.0 WSW 6 9 1014.2 - 0.0 - - - - - - -
05/02:30pm 22.7 W 5 11 1014.3 - 0.0 - - - - - - -
05/02:00pm 22.0 W 6 13 1014.7 - 0.0 - - - - - - -
05/01:30pm 22.2 W 6 9 1015.2 - 0.0 - - - - - - -
05/01:00pm 21.7 WSW 5 9 1015.7 - 0.0 - - - - - - -
05/12:30pm 20.1 WSW 5 10 1016.4 - 0.0 - - - - - - -
05/12:00pm 20.4 WSW 6 12 1017.0 - 0.0 - - - - - - -
05/11:30am 20.1 WSW 5 11 1017.5 - 0.0 - - - - - - -
05/11:00am 16.9 SW 8 13 1018.1 - 0.0 - - - - - - -
05/10:30am 17.3 SW 7 16 1018.8 - 0.0 - - - - - - -
05/10:00am 15.1 SSW 11 20 1019.3 - 0.0 - - - - - - -
05/09:30am 15.0 SW 9 21 1019.4 - 0.0 - - - - - - -
05/09:00am 13.5 SW 9 17 1019.7 - 0.0 - - - - - - -
05/08:30am 12.6 SW 8 13 1019.7 - 0.0 - - - - - - -
05/08:00am 11.9 SSW 9 14 1019.3 - 0.0 - - - - - - -
05/07:30am 11.0 SW 8 12 1019.1 - 0.0 - - - - - - -
05/07:00am 10.7 SW 9 13 1018.8 - 0.0 - - - - - - -
05/06:30am 10.7 SW 9 17 1018.4 - 0.0 - - - - - - -
05/06:00am 10.8 SW 10 18 1018.0 - 0.0 - - - - - - -
05/05:30am 10.7 SSW 8 12 1017.6 - 0.0 - - - - - - -
05/05:00am 10.8 SW 11 15 1017.3 - 0.0 - - - - - - -
05/04:30am 11.2 SW 11 17 1017.1 - 0.0 - - - - - - -
05/04:00am 11.7 SSW 9 17 1016.9 - 0.0 - - - - - - -
05/03:30am 12.0 SSW 9 15 1016.9 - 0.0 - - - - - - -
05/03:00am 12.6 SSW 9 17 1016.9 - 0.0 - - - - - - -
05/02:30am 12.9 S 7 12 1017.1 - 0.0 - - - - - - -
05/02:00am 13.2 SSW 7 12 1017.2 - 0.0 - - - - - - -
05/01:30am 13.7 SSW 7 14 1017.4 - 0.0 - - - - - - -
05/01:00am 14.2 SW 7 11 1017.4 - 0.0 - - - - - - -
05/12:30am 15.0 SSW 9 16 1017.3 - 0.0 - - - - - - -
05/12:00am 15.4 SSW 9 13 1017.4 - 0.0 - - - - - - -
 
Date/Time
EST
Temp

°C
Wind Pressure Rain
since 9am
mm
Weather Cloud Vis
km
Sea
Height
m
Swell
Dir
 
Speed
knots
Gust
knots
hPa Trend Height
m
Period
s
Dir
04/11:30pm 15.8 SSW 9 13 1017.4 - 0.0 - - - - - - -
04/11:00pm 16.5 SSW 8 13 1017.4 - 0.0 - - - - - - -
04/10:30pm 16.2 SW 7 10 1017.3 - 0.0 - - - - - - -
04/10:00pm 16.2 WSW 5 7 1017.3 - 0.0 - - - - - - -
04/09:30pm 16.6 WSW 5 6 1017.2 - 0.0 - - - - - - -
04/09:00pm 16.5 WSW 5 6 1016.9 - 0.0 - - - - - - -
04/08:30pm 17.2 SSW 4 6 1016.9 - 0.0 - - - - - - -
04/08:00pm 17.9 S 5 7 1016.9 - 0.0 - - - - - - -
04/07:30pm 18.5 SW 5 6 1016.7 - 0.0 - - - - - - -
04/07:00pm 18.2 WSW 4 5 1016.5 - 0.0 - - - - - - -
04/06:30pm 18.0 WSW 5 7 1016.5 - 0.0 - - - - - - -
04/06:00pm 18.3 WSW 5 8 1016.4 - 0.0 - - - - - - -
04/05:30pm 19.0 SW 5 8 1016.2 - 0.0 - - - - - - -
04/05:00pm 18.8 SW 5 7 1016.0 - 0.0 - - - - - - -
04/04:30pm 19.2 SW 5 12 1015.9 - 0.0 - - - - - - -
04/04:00pm 21.2 SW 6 11 1015.8 - 0.0 - - - - - - -
04/03:30pm 22.7 SSW 5 8 1015.6 - 0.0 - - - - - - -
04/03:00pm 23.9 SSW 4 7 1015.7 - 0.0 - - - - - - -
04/02:30pm 23.2 SW 4 8 1015.9 - 0.0 - - - - - - -
04/02:00pm 22.7 SSW 8 11 1016.1 - 0.0 - - - - - - -
04/01:30pm 23.9 ENE 5 7 1016.5 - 0.0 - - - - - - -
04/01:00pm 24.7 S 4 7 1016.6 - 0.0 - - - - - - -
04/12:30pm 24.8 SW 5 7 1017.0 - 0.0 - - - - - - -
04/12:00pm 23.2 SW 6 9 1017.6 - 0.0 - - - - - - -
04/11:30am 22.3 SW 4 7 1018.3 - 0.0 - - - - - - -
04/11:00am 21.8 S 5 8 1018.6 - 0.0 - - - - - - -
04/10:30am 21.9 WSW 5 8 1019.0 - 0.0 - - - - - - -
04/10:00am 21.0 WSW 4 5 1019.3 - 0.0 - - - - - - -
04/09:30am 18.9 SW 5 9 1019.3 - 0.0 - - - - - - -
04/09:00am 17.5 SW 7 12 1019.1 - 0.0 - - - - - - -
04/08:30am 16.2 SW 7 14 1019.0 - 0.0 - - - - - - -
04/08:00am 15.4 SW 7 11 1018.5 - 0.0 - - - - - - -
04/07:30am 14.7 SW 9 16 1018.4 - 0.0 - - - - - - -
04/07:00am 15.2 SSW 9 13 1018.0 - 0.0 - - - - - - -
04/06:30am 14.8 SSW 10 14 1017.7 - 0.0 - - - - - - -
04/06:00am 15.0 SW 8 12 1017.4 - 0.0 - - - - - - -
04/05:30am 15.5 SSW 8 11 1017.2 - 0.0 - - - - - - -
04/05:00am 15.8 SSW 7 9 1016.8 - 0.0 - - - - - - -
04/04:30am 16.4 SSW 7 8 1016.5 - 0.0 - - - - - - -
04/04:00am 16.4 SW 6 8 1016.6 - 0.0 - - - - - - -
04/03:30am 16.8 WSW 4 5 1016.6 - 0.0 - - - - - - -
04/03:00am 17.1 WSW 5 8 1016.8 - 0.0 - - - - - - -
04/02:30am 17.2 SW 5 8 1016.8 - 0.0 - - - - - - -
04/02:00am 16.8 WSW 4 5 1017.0 - 0.0 - - - - - - -
04/01:30am 17.1 WSW 5 7 1017.2 - 0.0 - - - - - - -
04/01:00am 17.2 WSW 4 5 1017.3 - 0.0 - - - - - - -
04/12:30am 17.2 WSW 4 5 1017.4 - 0.0 - - - - - - -
04/12:00am 17.2 WSW 3 5 1017.3 - 0.0 - - - - - - -
 
Date/Time
EST
Temp

°C
Wind Pressure Rain
since 9am
mm
Weather Cloud Vis
km
Sea
Height
m
Swell
Dir
 
Speed
knots
Gust
knots
hPa Trend Height
m
Period
s
Dir
03/11:30pm 17.6 W 3 5 1017.5 - 0.0 - - - - - - -
03/11:00pm 17.7 WSW 3 4 1017.6 - 0.0 - - - - - - -
03/10:30pm 17.8 WSW 3 4 1017.6 - 0.0 - - - - - - -
03/10:00pm 18.3 NW 5 6 1017.3 - 0.0 - - - - - - -
03/09:30pm 18.3 NW 5 7 1017.6 - 0.0 - - - - - - -
03/09:00pm 18.1 WNW 3 5 1017.7 - 0.0 - - - - - - -
03/08:30pm 18.5 NW 5 7 1017.8 - 0.0 - - - - - - -
03/08:00pm 18.6 NW 4 6 1017.9 - 0.0 - - - - - - -
03/07:30pm 19.1 NNW 6 8 1017.5 - 0.0 - - - - - - -
03/07:00pm 19.0 NNW 5 8 1017.3 - 0.0 - - - - - - -
03/06:30pm 19.1 N 4 7 1017.0 - 0.0 - - - - - - -
03/06:00pm 19.7 N 6 10 1016.8 - 0.0 - - - - - - -
03/05:30pm 20.4 NNE 5 8 1016.5 - 0.0 - - - - - - -
03/05:00pm 21.8 NNE 5 10 1016.4 - 0.0 - - - - - - -
03/04:30pm 23.4 NNE 6 10 1016.3 - 0.0 - - - - - - -
03/04:00pm 24.1 NNE 6 11 1016.2 - 0.0 - - - - - - -
03/03:30pm 24.5 NNE 7 12 1016.1 - 0.0 - - - - - - -
03/03:00pm 24.3 NE 8 11 1016.2 - 0.0 - - - - - - -
03/02:30pm 24.5 NE 6 11 1016.6 - 0.0 - - - - - - -
03/02:00pm 24.3 NE 8 13 1016.7 - 0.0 - - - - - - -
03/01:30pm 24.5 NE 8 13 1017.2 - 0.0 - - - - - - -
03/01:00pm 25.5 NE 7 12 1017.6 - 0.0 - - - - - - -
03/12:30pm 26.1 NE 6 10 1018.3 - 0.0 - - - - - - -
03/12:00pm 26.6 NNE 4 9 1018.6 - 0.0 - - - - - - -
03/11:30am 24.5 WNW 4 8 1019.3 - 0.0 - - - - - - -
03/11:00am 23.1 NW 4 7 1019.9 - 0.0 - - - - - - -
03/10:30am 22.4 W 3 5 1020.4 - 0.0 - - - - - - -
03/10:00am 21.6 W 3 6 1020.8 - 0.0 - - - - - - -
03/09:30am 19.7 WSW 4 5 1021.1 - 0.0 - - - - - - -
03/09:00am 18.3 SW 3 4 1020.8 - 0.2 - - - - - - -
03/08:30am 17.0 WSW 4 5 1020.4 - 0.2 - - - - - - -
03/08:00am 16.6 CALM 0 3 1020.0 - 0.2 - - - - - - -
03/07:30am 16.6 CALM 0 2 1019.9 - 0.2 - - - - - - -
03/07:00am 16.2 SW 4 6 1020.0 - 0.0 - - - - - - -
03/06:30am 16.0 SW 5 6 1019.8 - 0.0 - - - - - - -
03/06:00am 15.9 SW 5 7 1019.6 - 0.0 - - - - - - -
03/05:30am 15.8 SW 5 7 1019.6 - 0.0 - - - - - - -
03/05:00am 16.0 WSW 5 6 1019.3 - 0.0 - - - - - - -
03/04:30am 16.1 SW 5 7 1019.2 - 0.0 - - - - - - -
03/04:00am 16.6 WSW 4 6 1019.3 - 0.0 - - - - - - -
03/03:30am 16.6 WSW 4 6 1019.3 - 0.0 - - - - - - -
03/03:00am 16.5 SW 5 6 1019.4 - 0.0 - - - - - - -
03/02:30am 16.5 WSW 4 5 1019.5 - 0.0 - - - - - - -
03/02:00am 16.8 WSW 4 5 1019.8 - 0.0 - - - - - - -
03/01:30am 16.9 WSW 3 4 1019.8 - 0.0 - - - - - - -
03/01:00am 17.1 CALM 0 0 1020.0 - 0.0 - - - - - - -
03/12:30am 17.4 ESE 2 3 1020.3 - 0.0 - - - - - - -
03/12:00am 17.8 ESE 3 4 1020.6 - 0.0 - - - - - - -
 
Date/Time
EST
Temp

°C
Wind Pressure Rain
since 9am
mm
Weather Cloud Vis
km
Sea
Height
m
Swell
Dir
 
Speed
knots
Gust
knots
hPa Trend Height
m
Period
s
Dir
02/11:30pm 17.6 ESE 4 5 1020.7 - 0.0 - - - - - - -
02/11:00pm 17.9 SE 3 4 1021.1 - 0.0 - - - - - - -
02/10:30pm 17.7 E 3 3 1020.9 - 0.0 - - - - - - -
02/10:00pm 17.5 ENE 3 4 1021.1 - 0.0 - - - - - - -
02/09:30pm 17.5 NE 4 4 1021.1 - 0.0 - - - - - - -
02/09:00pm 17.9 NE 3 4 1021.0 - 0.0 - - - - - - -
02/08:30pm 17.9 ENE 5 6 1020.8 - 0.0 - - - - - - -
02/08:00pm 17.8 NE 4 5 1020.9 - 0.0 - - - - - - -
02/07:30pm 18.2 ENE 5 6 1020.8 - 0.0 - - - - - - -
02/07:00pm 18.2 NE 4 6 1020.7 - 0.0 - - - - - - -
02/06:30pm 18.3 NE 5 7 1020.5 - 0.0 - - - - - - -
02/06:00pm 18.8 ENE 5 7 1020.3 - 0.0 - - - - - - -
02/05:30pm 19.5 ENE 6 7 1020.3 - 0.0 - - - - - - -
02/05:00pm 20.6 ENE 7 9 1020.1 - 0.0 - - - - - - -
02/04:30pm 22.0 ENE 7 9 1020.1 - 0.0 - - - - - - -

Other Formats:

Comma delimited format used in spreadsheet applications
http://www.bom.gov.au/fwo/IDQ60701/IDQ60701.94380.axf

JavaScript Object Notation format (JSON) in row-major order
http://www.bom.gov.au/fwo/IDQ60701/IDQ60701.94380.json